createdAt,value
2018-10-02T00:01:38.118Z,7.30
2018-10-02T00:04:07.182Z,7.27
2018-10-02T00:06:36.066Z,7.36
2018-10-02T00:09:06.953Z,7.35
2018-10-02T00:11:41.004Z,7.35
2018-10-02T00:14:15.249Z,7.39
2018-10-02T00:16:44.376Z,7.46
2018-10-02T00:19:13.129Z,7.50
2018-10-02T00:21:41.967Z,7.49
2018-10-02T00:24:10.709Z,7.47
2018-10-02T00:26:39.601Z,7.49
2018-10-02T00:29:08.475Z,7.68
2018-10-02T00:31:37.410Z,7.50
2018-10-02T00:34:06.195Z,7.53
2018-10-02T00:36:35.052Z,7.60
2018-10-02T00:39:04.418Z,7.67
2018-10-02T00:41:33.270Z,7.65
2018-10-02T00:44:02.094Z,7.72
2018-10-02T00:46:31.038Z,7.76
2018-10-02T00:48:59.849Z,7.82
2018-10-02T00:51:28.689Z,7.78
2018-10-02T00:53:57.526Z,7.77
2018-10-02T00:56:26.277Z,7.82
2018-10-02T00:58:55.456Z,7.84
2018-10-02T01:01:24.229Z,7.84
2018-10-02T01:03:53.162Z,7.93
2018-10-02T01:06:22.043Z,7.95
2018-10-02T01:08:50.897Z,7.91
2018-10-02T01:11:19.714Z,7.96
2018-10-02T01:13:48.562Z,7.94
2018-10-02T01:16:17.338Z,7.95
2018-10-02T01:18:46.341Z,7.89
2018-10-02T01:21:15.111Z,7.88
2018-10-02T01:23:44.014Z,7.87
2018-10-02T01:26:12.762Z,7.86
2018-10-02T01:28:41.639Z,7.88
2018-10-02T01:31:10.440Z,7.90
2018-10-02T01:33:39.234Z,7.87
2018-10-02T01:36:08.610Z,7.81
2018-10-02T01:38:37.469Z,7.82
2018-10-02T01:41:06.437Z,7.76
2018-10-02T01:43:35.206Z,7.66
2018-10-02T01:46:04.466Z,7.65
2018-10-02T01:48:33.394Z,7.61
2018-10-02T01:51:02.182Z,7.68
2018-10-02T01:53:30.973Z,7.67
2018-10-02T01:55:59.854Z,7.66
2018-10-02T01:58:29.020Z,7.67
2018-10-02T02:00:57.881Z,7.70
2018-10-02T02:03:27.420Z,7.74
2018-10-02T02:05:56.289Z,7.76
2018-10-02T02:08:25.094Z,7.75
2018-10-02T02:10:54.199Z,7.65
2018-10-02T02:13:23.026Z,7.61
2018-10-02T02:15:51.767Z,7.68
2018-10-02T02:18:20.578Z,7.69
2018-10-02T02:20:49.402Z,7.76
2018-10-02T02:23:18.192Z,7.71
2018-10-02T02:25:47.099Z,7.69
2018-10-02T02:28:15.914Z,7.66
2018-10-02T02:30:44.743Z,7.70
2018-10-02T02:33:13.626Z,7.69
2018-10-02T02:35:42.502Z,7.57
2018-10-02T02:38:11.302Z,7.64
2018-10-02T02:40:40.496Z,7.66
2018-10-02T02:43:09.202Z,7.66
2018-10-02T02:45:38.118Z,7.62
2018-10-02T02:48:12.026Z,7.64
2018-10-02T02:50:50.841Z,7.53
2018-10-02T02:53:23.282Z,7.58
2018-10-02T02:55:52.749Z,7.48
2018-10-02T02:58:22.447Z,7.53
2018-10-02T03:00:51.343Z,7.51
2018-10-02T03:03:20.307Z,7.54
2018-10-02T03:05:49.109Z,7.52
2018-10-02T03:08:17.966Z,7.44
2018-10-02T03:10:47.086Z,7.46
2018-10-02T03:13:15.934Z,7.44
2018-10-02T03:15:44.815Z,7.50
2018-10-02T03:18:13.893Z,7.49
2018-10-02T03:20:42.702Z,7.44
2018-10-02T03:23:12.217Z,7.47
2018-10-02T03:25:41.088Z,7.41
2018-10-02T03:28:09.853Z,7.47
2018-10-02T03:30:38.650Z,7.56
2018-10-02T03:33:08.054Z,7.49
2018-10-02T03:35:36.871Z,7.52
2018-10-02T03:38:05.795Z,7.51
2018-10-02T03:40:34.539Z,7.58
2018-10-02T03:43:03.317Z,7.60
2018-10-02T03:45:32.122Z,7.62
2018-10-02T03:48:00.845Z,7.59
2018-10-02T03:50:29.707Z,7.60
2018-10-02T03:52:58.433Z,7.60
2018-10-02T03:55:27.286Z,7.57
2018-10-02T03:57:56.031Z,7.58
2018-10-02T04:00:24.970Z,7.54
2018-10-02T04:02:53.843Z,7.53
2018-10-02T04:05:22.822Z,7.45
2018-10-02T04:07:51.631Z,7.39
2018-10-02T04:10:20.391Z,7.25
2018-10-02T04:12:49.312Z,7.13
2018-10-02T04:15:18.110Z,7.10
2018-10-02T04:17:46.941Z,7.12
2018-10-02T04:20:16.006Z,7.14
2018-10-02T04:22:44.794Z,7.18
2018-10-02T04:25:13.501Z,7.16
2018-10-02T04:27:42.382Z,7.21
2018-10-02T04:30:11.161Z,7.16
2018-10-02T04:32:40.010Z,7.11
2018-10-02T04:35:09.140Z,7.09
2018-10-02T04:37:38.388Z,7.06
2018-10-02T04:40:07.218Z,7.00
2018-10-02T04:42:36.161Z,6.88
2018-10-02T04:45:05.076Z,6.91
2018-10-02T04:47:34.239Z,6.87
2018-10-02T04:50:03.158Z,6.87
2018-10-02T04:52:31.941Z,6.82
2018-10-02T04:55:00.786Z,6.84
2018-10-02T04:57:29.575Z,6.86
2018-10-02T04:59:58.374Z,6.81
2018-10-02T05:02:27.344Z,6.80
2018-10-02T05:04:56.068Z,6.82
2018-10-02T05:07:24.922Z,6.75
2018-10-02T05:09:53.794Z,6.69
2018-10-02T05:12:24.520Z,6.63
2018-10-02T05:14:54.292Z,6.53
2018-10-02T05:17:23.395Z,6.55
2018-10-02T05:19:52.282Z,6.50
2018-10-02T05:22:21.336Z,6.39
2018-10-02T05:24:50.054Z,6.31
2018-10-02T05:27:19.124Z,6.30
2018-10-02T05:29:48.021Z,6.25
2018-10-02T05:32:16.820Z,6.26
2018-10-02T05:34:45.678Z,6.26
2018-10-02T05:37:15.265Z,6.31
2018-10-02T05:39:44.172Z,6.35
2018-10-02T05:42:12.958Z,6.37
2018-10-02T05:44:43.583Z,6.54
2018-10-02T05:47:12.425Z,6.59
2018-10-02T05:49:43.166Z,6.75
2018-10-02T05:52:12.062Z,6.79
2018-10-02T05:54:41.074Z,6.98
2018-10-02T05:57:09.973Z,7.44
2018-10-02T05:59:38.911Z,8.05
2018-10-02T06:02:07.950Z,8.63
2018-10-02T06:04:36.959Z,8.29
2018-10-02T06:07:06.035Z,8.17
2018-10-02T06:09:34.891Z,8.15
2018-10-02T06:12:03.943Z,8.38
2018-10-02T06:14:33.342Z,8.21
2018-10-02T06:17:02.203Z,8.05
2018-10-02T06:19:31.049Z,8.02
2018-10-02T06:21:59.904Z,8.49
2018-10-02T06:24:29.134Z,8.54
2018-10-02T06:26:58.502Z,8.78
2018-10-02T06:29:27.452Z,9.19
2018-10-02T06:31:56.299Z,9.77
2018-10-02T06:34:25.068Z,9.98
2018-10-02T06:36:57.219Z,10.25
2018-10-02T06:39:27.000Z,11.06
2018-10-02T06:41:55.969Z,10.86
2018-10-02T06:44:24.832Z,10.36
2018-10-02T06:46:53.794Z,9.87
2018-10-02T06:49:22.689Z,9.31
2018-10-02T06:51:51.686Z,9.31
2018-10-02T06:54:20.697Z,9.42
2018-10-02T06:56:50.029Z,9.33
2018-10-02T06:59:18.936Z,9.41
2018-10-02T07:01:47.970Z,9.42
2018-10-02T07:04:16.941Z,9.54
2018-10-02T07:06:50.772Z,9.28
2018-10-02T07:09:20.046Z,9.14
2018-10-02T07:11:48.992Z,9.14
2018-10-02T07:14:18.214Z,9.02
2018-10-02T07:16:49.692Z,8.90
2018-10-02T07:19:19.191Z,9.04
2018-10-02T07:21:50.336Z,9.31
2018-10-02T07:24:20.279Z,9.49
2018-10-02T07:26:49.449Z,9.31
2018-10-02T07:29:18.167Z,9.42
2018-10-02T07:31:49.411Z,9.49
2018-10-02T07:34:18.254Z,9.31
2018-10-02T07:36:47.136Z,9.33
2018-10-02T07:39:16.040Z,9.37
2018-10-02T07:41:44.878Z,9.39
2018-10-02T07:44:14.000Z,9.41
2018-10-02T07:46:43.544Z,9.39
2018-10-02T07:49:12.842Z,9.33
2018-10-02T07:54:32.965Z,9.35
2018-10-02T07:57:02.425Z,9.63
2018-10-02T07:59:31.776Z,9.55
2018-10-02T08:02:01.685Z,9.62
2018-10-02T08:04:31.252Z,9.95
2018-10-02T08:07:01.196Z,9.92
2018-10-02T08:09:30.244Z,9.87
2018-10-02T08:11:59.203Z,9.94
2018-10-02T08:14:28.327Z,10.23
2018-10-02T08:16:57.351Z,10.13
2018-10-02T08:19:26.899Z,10.17
2018-10-02T08:21:56.663Z,10.30
2018-10-02T08:24:25.585Z,10.67
2018-10-02T08:26:54.465Z,11.58
2018-10-02T08:29:23.379Z,11.85
2018-10-02T08:31:53.146Z,12.25
2018-10-02T08:34:22.479Z,11.93
2018-10-02T08:36:51.291Z,11.83
2018-10-02T08:39:20.638Z,12.03
2018-10-02T08:41:49.773Z,12.64
2018-10-02T08:44:18.850Z,13.12
2018-10-02T08:46:48.084Z,12.43
2018-10-02T08:49:17.436Z,11.90
2018-10-02T08:51:46.637Z,11.89
2018-10-02T08:54:15.462Z,11.97
2018-10-02T08:56:44.394Z,11.98
2018-10-02T08:59:13.251Z,12.03
2018-10-02T09:01:42.151Z,12.02
2018-10-02T09:04:11.039Z,12.34
2018-10-02T09:06:40.045Z,12.16
2018-10-02T09:09:12.097Z,11.70
2018-10-02T09:11:42.214Z,11.24
2018-10-02T09:14:11.220Z,11.12
2018-10-02T09:16:40.373Z,11.46
2018-10-02T09:19:09.572Z,11.62
2018-10-02T09:21:39.033Z,11.40
2018-10-02T09:24:08.353Z,11.57
2018-10-02T09:26:37.425Z,11.93
2018-10-02T09:29:06.473Z,12.48
2018-10-02T09:31:40.512Z,12.49
2018-10-02T09:34:14.811Z,12.62
2018-10-02T09:36:48.848Z,12.97
2018-10-02T09:39:23.136Z,12.65
2018-10-02T09:41:57.284Z,12.46
2018-10-02T09:44:26.502Z,12.72
2018-10-02T09:46:55.862Z,12.50
2018-10-02T09:49:25.064Z,12.24
2018-10-02T09:51:54.497Z,12.03
2018-10-02T09:54:23.584Z,11.87
2018-10-02T09:56:52.697Z,11.72
2018-10-02T09:59:21.873Z,11.43
2018-10-02T10:01:56.785Z,11.21
2018-10-02T10:04:27.266Z,11.08
2018-10-02T10:06:56.012Z,11.08
2018-10-02T10:09:24.930Z,11.04
2018-10-02T10:11:54.103Z,10.85
2018-10-02T10:14:23.833Z,10.67
2018-10-02T10:16:55.313Z,10.71
2018-10-02T10:19:24.176Z,10.62
2018-10-02T10:21:53.042Z,10.50
2018-10-02T10:24:22.491Z,10.55
2018-10-02T10:26:51.504Z,10.38
2018-10-02T10:29:20.429Z,10.41
2018-10-02T10:31:49.644Z,10.68
2018-10-02T10:34:18.662Z,10.88
2018-10-02T10:36:48.788Z,11.03
2018-10-02T10:39:17.820Z,10.86
2018-10-02T10:41:46.910Z,10.92
2018-10-02T10:44:15.909Z,10.66
2018-10-02T10:46:46.535Z,10.76
2018-10-02T10:49:15.541Z,10.94
2018-10-02T10:51:45.020Z,11.14
2018-10-02T10:54:13.962Z,11.15
2018-10-02T10:56:43.801Z,11.04
2018-10-02T10:59:12.911Z,10.97
2018-10-02T11:01:42.506Z,11.01
2018-10-02T11:04:11.657Z,11.36
2018-10-02T11:06:41.999Z,11.45
2018-10-02T11:09:14.046Z,11.10
2018-10-02T11:11:42.975Z,11.05
2018-10-02T11:14:11.919Z,11.00
2018-10-02T11:16:41.687Z,10.61
2018-10-02T11:19:10.534Z,10.29
2018-10-02T11:21:39.824Z,10.20
2018-10-02T11:24:09.069Z,10.14
2018-10-02T11:26:38.018Z,9.93
2018-10-02T11:29:07.002Z,9.75
2018-10-02T11:31:35.768Z,9.57
2018-10-02T11:34:04.834Z,9.50
2018-10-02T11:36:33.751Z,9.31
2018-10-02T11:39:02.610Z,9.31
2018-10-02T11:41:31.771Z,9.60
2018-10-02T11:44:00.775Z,9.79
2018-10-02T11:46:29.488Z,9.62
2018-10-02T11:48:58.303Z,9.81
2018-10-02T11:51:27.126Z,10.12
2018-10-02T11:53:55.960Z,10.31
2018-10-02T11:56:26.196Z,10.07
2018-10-02T11:58:55.672Z,10.26
2018-10-02T12:01:24.852Z,10.27
2018-10-02T12:03:54.136Z,10.24
2018-10-02T12:06:23.426Z,10.20
2018-10-02T12:08:52.344Z,10.13
2018-10-02T12:11:23.234Z,10.12
2018-10-02T12:13:55.851Z,10.11
2018-10-02T12:16:26.715Z,10.14
2018-10-02T12:18:55.705Z,10.31
2018-10-02T12:21:25.601Z,10.27
2018-10-02T12:23:54.997Z,10.46
2018-10-02T12:26:24.163Z,10.20
2018-10-02T12:28:54.555Z,10.25
2018-10-02T12:31:24.820Z,10.29
2018-10-02T12:33:54.397Z,10.13
2018-10-02T12:36:23.142Z,10.17
2018-10-02T12:38:52.143Z,10.10
2018-10-02T12:41:23.555Z,10.21
2018-10-02T12:43:54.529Z,10.14
2018-10-02T12:46:23.802Z,10.16
2018-10-02T12:48:52.764Z,10.34
2018-10-02T12:51:21.836Z,10.47
2018-10-02T12:53:50.683Z,10.36
2018-10-02T12:56:19.981Z,10.32
2018-10-02T13:02:11.660Z,10.86
2018-10-02T13:04:40.640Z,10.55
2018-10-02T13:07:10.024Z,10.30
2018-10-02T13:09:40.368Z,10.38
2018-10-02T13:12:10.105Z,10.20
2018-10-02T13:14:39.225Z,10.32
2018-10-02T13:17:08.836Z,10.31
2018-10-02T13:19:38.452Z,10.25
2018-10-02T13:22:07.670Z,10.37
2018-10-02T13:24:37.244Z,10.35
2018-10-02T13:27:06.964Z,10.38
2018-10-02T13:29:36.617Z,10.44
2018-10-02T13:32:05.807Z,10.33
2018-10-02T13:34:35.262Z,10.31
2018-10-02T13:37:05.074Z,10.22
2018-10-02T13:39:34.289Z,10.25
2018-10-02T13:42:03.994Z,10.28
2018-10-02T13:44:33.235Z,10.28
2018-10-02T13:47:02.699Z,10.01
2018-10-02T13:49:32.592Z,9.82
2018-10-02T13:52:01.535Z,9.85
2018-10-02T13:54:31.580Z,9.70
2018-10-02T13:57:00.751Z,9.57
2018-10-02T13:59:30.137Z,9.58
2018-10-02T14:01:59.493Z,9.48
2018-10-02T14:04:29.546Z,9.42
2018-10-02T14:06:58.928Z,9.42
2018-10-02T14:09:28.448Z,9.41
2018-10-02T14:11:58.369Z,9.44
2018-10-02T14:14:27.738Z,9.52
2018-10-02T14:16:57.444Z,9.55
2018-10-02T14:19:27.180Z,9.49
2018-10-02T14:21:56.543Z,9.49
2018-10-02T14:24:25.666Z,9.53
2018-10-02T14:26:54.960Z,9.58
2018-10-02T14:29:25.648Z,9.65
2018-10-02T14:31:54.954Z,9.75
2018-10-02T14:34:24.131Z,9.81
2018-10-02T14:36:54.060Z,9.75
2018-10-02T14:39:23.559Z,9.81
2018-10-02T14:41:52.687Z,9.96
2018-10-02T14:44:22.947Z,10.04
2018-10-02T14:46:52.660Z,10.04
2018-10-02T14:49:21.926Z,10.07
2018-10-02T14:51:51.264Z,9.97
2018-10-02T14:54:21.631Z,10.08
2018-10-02T14:56:51.138Z,9.99
2018-10-02T14:59:20.718Z,10.01
2018-10-02T15:01:50.003Z,10.01
2018-10-02T15:04:19.368Z,10.07
2018-10-02T15:06:49.481Z,10.09
2018-10-02T15:09:18.835Z,10.12
2018-10-02T15:11:48.147Z,10.14
2018-10-02T15:14:17.439Z,10.20
2018-10-02T15:16:46.761Z,10.16
2018-10-02T15:19:18.524Z,10.34
2018-10-02T15:21:47.776Z,10.26
2018-10-02T15:24:18.941Z,10.29
2018-10-02T15:26:48.094Z,10.25
2018-10-02T15:29:17.095Z,10.25
2018-10-02T15:31:46.311Z,10.25
2018-10-02T15:34:15.901Z,10.34
2018-10-02T15:36:47.246Z,10.36
2018-10-02T15:39:16.572Z,10.42
2018-10-02T15:41:47.114Z,10.47
2018-10-02T15:44:16.476Z,10.53
2018-10-02T15:46:45.876Z,10.47
2018-10-02T15:49:17.001Z,10.63
2018-10-02T15:51:47.074Z,10.63
2018-10-02T15:54:17.735Z,10.58
2018-10-02T15:56:47.542Z,10.60
2018-10-02T15:59:16.715Z,10.64
2018-10-02T16:01:45.659Z,10.69
2018-10-02T16:04:14.755Z,10.55
2018-10-02T16:06:44.245Z,10.47
2018-10-02T16:09:13.184Z,10.47
2018-10-02T16:11:42.221Z,10.38
2018-10-02T16:14:11.105Z,10.43
2018-10-02T16:16:40.217Z,10.47
2018-10-02T16:19:09.100Z,10.44
2018-10-02T16:21:38.231Z,10.45
2018-10-02T16:24:07.250Z,10.41
2018-10-02T16:26:36.200Z,10.43
2018-10-02T16:29:05.197Z,10.28
2018-10-02T16:31:34.126Z,10.14
2018-10-02T16:34:03.017Z,10.10
2018-10-02T16:36:31.994Z,9.98
2018-10-02T16:39:00.986Z,10.00
2018-10-02T16:41:29.991Z,9.82
2018-10-02T16:43:58.836Z,9.72
2018-10-02T16:46:27.667Z,9.65
2018-10-02T16:48:56.844Z,9.51
2018-10-02T16:51:26.368Z,9.47
2018-10-02T16:53:55.510Z,9.47
2018-10-02T16:56:24.324Z,9.51
2018-10-02T16:58:53.339Z,9.46
2018-10-02T17:01:22.218Z,9.50
2018-10-02T17:03:51.255Z,9.61
2018-10-02T17:06:20.429Z,9.70
2018-10-02T17:08:49.683Z,9.72
2018-10-02T17:11:18.642Z,9.78
2018-10-02T17:13:47.682Z,9.82
2018-10-02T17:16:16.873Z,9.89
2018-10-02T17:18:45.850Z,9.89
2018-10-02T17:21:15.093Z,10.01
2018-10-02T17:23:43.847Z,10.11
2018-10-02T17:26:12.959Z,10.02
2018-10-02T17:28:42.167Z,10.08
2018-10-02T17:31:11.207Z,10.09
2018-10-02T17:33:40.112Z,10.03
2018-10-02T17:36:13.933Z,10.11
2018-10-02T17:38:43.008Z,10.05
2018-10-02T17:41:11.956Z,10.07
2018-10-02T17:43:40.999Z,10.13
2018-10-02T17:46:10.470Z,10.19
2018-10-02T17:48:39.359Z,10.09
2018-10-02T17:51:08.663Z,10.14
2018-10-02T17:53:37.607Z,10.17
2018-10-02T17:56:06.411Z,10.14
2018-10-02T17:58:35.635Z,10.11
2018-10-02T18:01:05.761Z,10.06
2018-10-02T18:03:34.651Z,10.06
2018-10-02T18:06:03.720Z,10.15
2018-10-02T18:08:35.168Z,10.15
2018-10-02T18:11:07.343Z,10.07
2018-10-02T18:13:36.381Z,10.05
2018-10-02T18:16:05.231Z,10.11
2018-10-02T18:18:35.524Z,10.13
2018-10-02T18:21:04.466Z,10.17
2018-10-02T18:23:33.743Z,10.22
2018-10-02T18:26:02.744Z,10.25
2018-10-02T18:28:32.809Z,10.38
2018-10-02T18:31:02.576Z,10.30
2018-10-02T18:33:32.973Z,10.33
2018-10-02T18:36:02.077Z,10.37
2018-10-02T18:38:33.485Z,10.43
2018-10-02T18:41:07.660Z,10.43
2018-10-02T18:43:37.920Z,10.45
2018-10-02T18:46:09.188Z,10.45
2018-10-02T18:48:39.830Z,10.57
2018-10-02T18:51:09.023Z,10.64
2018-10-02T18:53:38.186Z,10.62
2018-10-02T18:56:08.465Z,10.65
2018-10-02T18:58:38.685Z,10.75
2018-10-02T19:01:08.792Z,10.67
2018-10-02T19:03:38.767Z,10.78
2018-10-02T19:06:13.215Z,10.78
2018-10-02T19:08:48.983Z,10.75
2018-10-02T19:11:23.612Z,10.77
2018-10-02T19:13:58.732Z,10.81
2018-10-02T19:16:31.702Z,10.94
2018-10-02T19:19:02.203Z,10.95
2018-10-02T19:21:32.734Z,10.95
2018-10-02T19:24:11.636Z,11.00
2018-10-02T19:26:43.122Z,11.02
2018-10-02T19:29:14.780Z,10.99
2018-10-02T19:31:51.875Z,11.06
2018-10-02T19:34:21.448Z,11.08
2018-10-02T19:36:56.694Z,11.10
2018-10-02T19:39:38.883Z,11.14
2018-10-02T19:42:16.444Z,11.10
2018-10-02T19:47:33.721Z,11.15
2018-10-02T19:50:03.382Z,11.22
2018-10-02T19:52:33.913Z,11.26
2018-10-02T19:55:05.658Z,11.26
2018-10-02T19:57:35.811Z,11.20
2018-10-02T20:00:08.942Z,11.22
2018-10-02T20:11:47.854Z,11.12
2018-10-02T20:14:17.281Z,11.16
2018-10-02T20:16:46.482Z,11.22
2018-10-02T20:19:16.297Z,11.25
2018-10-02T20:21:45.663Z,11.27
2018-10-02T20:24:15.161Z,11.27
2018-10-02T20:26:44.340Z,11.27
2018-10-02T20:29:13.197Z,11.27
2018-10-02T20:31:44.038Z,11.33
2018-10-02T20:34:13.034Z,11.25
2018-10-02T20:36:44.710Z,11.25
2018-10-02T20:39:14.865Z,11.27
2018-10-02T20:41:44.937Z,11.28
2018-10-02T20:44:13.951Z,11.28
2018-10-02T20:46:43.104Z,11.30
2018-10-02T20:49:12.658Z,11.33
2018-10-02T20:51:41.571Z,11.24
2018-10-02T20:54:10.794Z,11.19
2018-10-02T20:56:43.650Z,11.24
2018-10-02T20:59:12.860Z,11.11
2018-10-02T21:01:41.863Z,11.15
2018-10-02T21:04:13.917Z,11.21
2018-10-02T21:06:43.254Z,11.19
2018-10-02T21:09:12.316Z,11.27
2018-10-02T21:11:45.346Z,11.25
2018-10-02T21:14:14.283Z,11.33
2018-10-02T21:16:43.356Z,11.37
2018-10-02T21:19:12.342Z,11.42
2018-10-02T21:21:42.137Z,11.42
2018-10-02T21:24:11.892Z,11.45
2018-10-02T21:26:42.940Z,11.47
2018-10-02T21:29:12.069Z,11.36
2018-10-02T21:31:42.309Z,11.37
2018-10-02T21:34:12.739Z,11.38
2018-10-02T21:36:42.047Z,11.36
2018-10-02T21:39:11.783Z,11.38
2018-10-02T21:41:44.149Z,11.39
2018-10-02T21:44:13.586Z,11.36
2018-10-02T21:46:43.897Z,11.33
2018-10-02T21:49:13.254Z,11.34
2018-10-02T21:51:42.264Z,11.27
2018-10-02T21:54:13.013Z,11.35
2018-10-02T21:59:49.446Z,11.26
2018-10-02T22:02:18.800Z,11.25
2018-10-02T22:04:48.144Z,11.34
2018-10-02T22:07:16.876Z,11.28
2018-10-02T22:09:46.840Z,11.30
2018-10-02T22:12:16.129Z,11.34
2018-10-02T22:14:47.571Z,11.39
2018-10-02T22:17:16.971Z,11.38
2018-10-02T22:19:46.414Z,11.41
2018-10-02T22:22:15.801Z,11.37
2018-10-02T22:24:45.603Z,11.41
2018-10-02T22:27:14.563Z,11.46
2018-10-02T22:29:46.641Z,11.47
2018-10-02T22:32:16.373Z,11.55
2018-10-02T22:34:46.482Z,11.55
2018-10-02T22:37:15.483Z,11.51
2018-10-02T22:39:44.375Z,11.50
2018-10-02T22:42:13.321Z,11.51
2018-10-02T22:44:44.313Z,11.55
2018-10-02T22:47:13.096Z,11.55
2018-10-02T22:49:42.177Z,11.57
2018-10-02T22:52:11.223Z,11.55
2018-10-02T22:54:40.123Z,11.48
2018-10-02T22:57:09.120Z,11.51
2018-10-02T22:59:38.076Z,11.39
2018-10-02T23:02:15.236Z,11.34
2018-10-02T23:04:44.103Z,11.30
2018-10-02T23:07:12.959Z,11.29
2018-10-02T23:09:41.803Z,11.26
2018-10-02T23:12:10.674Z,11.22
2018-10-02T23:14:39.627Z,11.18
2018-10-02T23:17:08.484Z,11.14
2018-10-02T23:19:37.294Z,11.18
2018-10-02T23:22:06.204Z,11.10
2018-10-02T23:24:34.952Z,11.13
2018-10-02T23:27:03.783Z,11.09
2018-10-02T23:29:32.521Z,11.11
2018-10-02T23:32:01.333Z,11.15
2018-10-02T23:34:30.167Z,11.09
2018-10-02T23:36:58.975Z,11.21
2018-10-02T23:39:27.791Z,11.22
2018-10-02T23:41:56.616Z,11.21
2018-10-02T23:44:25.426Z,11.19
2018-10-02T23:46:54.273Z,11.19
2018-10-02T23:49:23.127Z,11.23
2018-10-02T23:51:51.955Z,11.27
2018-10-02T23:54:20.819Z,11.33
2018-10-02T23:56:49.618Z,11.42
2018-10-02T23:59:18.763Z,11.37
